Search flights

Zarzis Airport, Djerba (DTTJ)

Airport Weather & NOTAM's

METAR for:DTTJ (Djerba/Zarzis Intl, ME, TN)
Text:DTTJ 151730Z 08010KT CAVOK 30/24 Q1011 NOSIG
Conditions at:1730 UTC 15 Jul 2024
Temperature: 30.0°C ( 86°F)
Dewpoint: 24.0°C ( 75°F) [RH = 70%]
Pressure (altimeter):29.85 inches Hg (1011.0 mb)
Winds:from the E (80 degrees) at 12 MPH (10 knots; 5.1 m/s)
Visibility:6 or more sm (10+ km)
Ceiling:ceiling and visibility are OK
Clouds:unknown
TAF for:DTTJ (Djerba/Zarzis Intl, ME, TN) issued at 1700 UTC 15 Jul 2024
Text:TAF DTTJ 151700Z 1518/1618 07015KT CAVOK
Forecast period:1800 to 1900 UTC 15 July 2024
Forecast type:FROM: standard forecast or significant change
Winds:from the ENE (70 degrees) at 17 MPH (15 knots; 7.7 m/s)
Visibility:6 or more sm (10+ km)
Clouds:missing
Weather:NSW (no significant weather)
Text:BECMG 1519/1521 VRB02KT
Forecast period:1900 UTC 15 July 2024 to 1000 UTC 16 July 2024
Forecast type:BECOMING: Conditions expected to become as follows by 2100 UTC 15 July 2024
Winds:variable direction winds at 2 MPH (2 knots; 1.0 m/s)
Visibility:6 or more sm (10+ km)
Clouds:missing
Weather:NSW (no significant weather)
Text:BECMG 1610/1612 07010KT
Forecast period:1000 to 1800 UTC 16 July 2024
Forecast type:BECOMING: Conditions expected to become as follows by 1200 UTC 16 July 2024
Winds:from the ENE (70 degrees) at 12 MPH (10 knots; 5.1 m/s)
Visibility:6 or more sm (10+ km)
Clouds:missing
Weather:NSW (no significant weather)

Live Departures & Arrivals

There are currently no arrivals or departures for this airport.

Departures History (last 12 months)

Flight No. Dest. Aircraft Date
TVS2803 LZIB Fenix A320... 2024-06-12 11:05:21
NOS1959 LIMC Fenix A320... 2024-06-10 15:13:08
LBT2340 EDDL Fenix A320... 2024-06-07 11:53:37
FWM458 DAAG Fenix A320... 2024-06-04 17:46:37
FWM211 DAAG Fenix A320... 2024-06-04 17:59:44
ENT4010 EPKT PMDG 737-9... 2024-06-03 18:38:10
TVS2819 LKPR PMDG 737-9... 2024-05-22 12:34:24
ENT1212 EPKT PMDG 737-9... 2024-05-16 14:14:04
LZB6816 LBSF Fenix A320... 2024-04-27 13:05:43
LBT7692 EPKT Fenix A320... 2024-04-24 11:44:09
TVS2825 LKPR PMDG 737-9... 2024-04-20 10:30:38
TVS2825 LKPR PMDG 737-9... 2024-04-11 15:21:16
LBT6148 LPPT Fenix A320... 2024-03-29 10:07:45
LBT741 DTMB Fenix A320... 2024-03-27 15:00:10
LBT9042 DTTA Fenix A320... 2024-03-25 01:24:08
LBT4940 OEJN Fenix A320... 2024-03-22 18:10:20
FWM14 FEFF Fenix A320... 2024-03-14 15:21:41
LBT9020 DTTA Fenix A320... 2024-03-03 14:00:32
{}G-FENX DTTA FenixA320... 2024-02-28 20:07:46
TVL5435 LHBP PMDG 737-9... 2024-02-22 15:08:56
TVS2790 LKPR PMDG 737-9... 2024-02-16 15:49:53
LBT588 LFML FenixA320_... 2024-02-09 12:19:00
LBT7692 EPKT FenixA320_... 2024-01-18 12:40:35
LBT4940 OEMA FenixA320_... 2024-01-03 11:49:41
TUI3605 EHAM FenixA320_... 2024-01-02 12:08:44
LBT740 LFBO FenixA320_... 2023-12-24 13:13:08
FWM003 LFBO Boeing 737... 2023-12-24 13:37:57
FWM93 DTTA PMDG 737-6... 2023-12-21 17:08:43
FWM93 DAAG PMDG 737-6... 2023-12-17 18:21:46
TAR682 LFMN FenixA320_... 2023-12-15 13:25:01
TAR542 EDDM FenixA320_... 2023-11-22 14:08:09
LBT740 LFBO FenixA320_... 2023-11-20 17:34:13
LBT574 LFLL FenixA320_... 2023-11-20 12:41:21
FWM47 DTTA Airbus A32... 2023-11-07 23:03:39
FWM93 DTTA PMDG 737-6... 2023-11-06 20:13:32
FWM14 LBSF FenixA320_... 2023-10-31 13:05:38
FWM93 LFPO PMDG 737-6... 2023-10-30 18:00:48
FWM93 LFPO PMDG 737-7... 2023-10-28 17:12:51
FWM14 LKPR FenixA320_... 2023-10-23 12:24:19
FWM93 DAAG FenixA320_... 2023-10-20 16:56:33
FWM93 LFML Boeing 737... 2023-10-19 14:29:30
FWM14 LFML PMDG 737-9... 2023-10-19 14:44:53
FWM14 LFBD FenixA320_... 2023-10-17 11:21:19
FWM14 DGAA FenixA320_... 2023-10-10 10:17:07
FWM93 LFPO FenixA320_... 2023-10-08 14:25:56
FWM14 LSZH FenixA320_... 2023-10-08 15:04:45
FWM93 LIPE PMDG 737-6... 2023-10-05 19:06:09
FWM14 LFQQ FenixA320_... 2023-10-04 12:37:19
FWM14 LFLL FenixA320_... 2023-10-01 15:58:15
FWM14 BIKF FenixA320_... 2023-09-29 16:10:12
FWM14 LFBO FenixA320_... 2023-09-27 13:36:34
FWM14 LFML FenixA320_... 2023-09-22 12:50:08
FWM14 LSGG FenixA320_... 2023-08-23 12:27:52
FWM14 DTMB FenixA320_... 2023-08-21 15:08:06
FWM14 LIPX Boeing 787... 2023-07-19 14:44:59

Arrivals History (last 12 months)

Flight No. Origin Aircraft Date
NOS1020 LIPX Fenix A320... 2024-06-10 15:13:01
TAR635 LFPO Fenix A320... 2024-06-03 14:33:51
FWM458 DTTA FSLabs A32... 2024-06-03 21:01:23
ENT4215 EPWA PMDG 737-9... 2024-06-03 18:38:03
TAP9001 LPPT FenixA320... 2024-05-29 13:44:42
LBT2023 EDDL A320neo Ea... 2024-05-27 16:29:37
TVS2818 LKPR PMDG 737-9... 2024-05-22 12:22:14
OCN210 EDDF FenixA320... 2024-05-08 02:21:46
FWM14 LMML FenixA320... 2024-05-08 11:15:28
FWM14 LIRF Fenix A320... 2024-04-28 17:06:43
LBT7693 EPKT Fenix A320... 2024-04-24 17:44:30
TVS2824 LKPR PMDG 737-9... 2024-04-11 15:09:29
EZS1583 LSGG Fenix A320... 2024-04-03 15:03:34
LBT741 LFBO Fenix A320... 2024-03-27 14:56:53
LZB6815 LBSF Fenix A320... 2024-03-13 15:16:18
TAR635 LFPG Fenix A320... 2024-03-07 15:34:25
LBT281 DTTA Fenix A320... 2024-02-29 15:37:32
TUX010 DTTA FenixA320_... 2024-02-26 19:18:13
TVL5434 LHBP PMDG 737-9... 2024-02-22 15:08:37
TVS2790 DTNH PMDG 737-9... 2024-02-16 15:49:43
TAR875 LSGG FenixA320_... 2024-02-10 16:38:51
LBT589 LFML FenixA320_... 2024-02-09 16:20:50
TAR589 LFLL FenixA320_... 2024-01-28 14:51:36
TAR635 LFPO FenixA320_... 2024-01-16 14:54:33
LBT93 LFLL FenixA320_... 2023-12-24 13:16:16
LBT593 LFLL FenixA320_... 2023-12-24 13:07:09
FWM14 DTTA FenixA320_... 2023-12-20 01:43:31
FWM93 DTTA PMDG 737-7... 2023-12-07 19:10:15
SWR120R LSZH FenixA320_... 2023-11-30 20:30:58
LBT93 LFML FenixA320_... 2023-11-23 21:57:43
FWM003 LFML PMDG 737-6... 2023-11-23 22:08:35
LBT575 LFLL FenixA320_... 2023-11-20 17:23:07
LBT589 LFML FenixA320_... 2023-11-19 16:49:15
FWM14 FACT Boeing 787... 2023-11-14 12:34:21
FWM14 DTTA FenixA320_... 2023-11-12 13:36:04
FWM93 LFML FenixA320_... 2023-11-06 19:40:45
FWM14 LFML FenixA320_... 2023-11-06 19:35:05
FWM14 DTTA FenixA320_... 2023-11-05 18:18:53
FWM14 LPPR FenixA320_... 2023-11-03 15:34:52
FWM14 EDDM FenixA320_... 2023-11-01 15:29:09
FWM93 LFPO PMDG 737-6... 2023-10-30 17:24:40
FWM14 LFPO PMDG 737-9... 2023-10-30 17:12:25
FWM14 DTTA FenixA320_... 2023-10-25 16:29:38
FWM93 LKPR FenixA320_... 2023-10-23 18:47:06
FWM14 LKPR FenixA320_... 2023-10-23 18:35:07
LBT93 DAAG FenixA320_... 2023-10-20 21:03:22
FWM93 LFML PMDG 737-8... 2023-10-18 19:36:31
FWM003 LFML PMDG 737-6... 2023-10-18 19:56:53
FWM14 EPPO PMDG 737-9... 2023-10-09 16:48:35
FWM93 DTTA FenixA320_... 2023-10-08 19:32:35
FWM14 LHBP FenixA320_... 2023-10-06 16:38:10
FWM14 LFQQ FenixA320_... 2023-10-04 17:53:19
FWM14 LKTB FenixA320_... 2023-10-02 16:47:06
FWM14 LFBO FenixA320_... 2023-09-27 17:22:40
FWM93 LICJ PMDG 737-6... 2023-09-23 18:41:04
FWM14 LHBP PMDG 737-9... 2023-09-23 14:15:04
FWM003 LICJ PMDG 737-6... 2023-09-23 16:10:18
FWM93 DTTA FenixA320_... 2023-09-22 17:09:56
FWM14 DTTA FenixA320_... 2023-09-22 17:09:55
FWM14 LKPR FenixA320_... 2023-08-28 13:41:46
FWM14 LFPG FenixA320_... 2023-08-21 15:04:48
FWM47 DTTA Airbus A34... 2023-08-10 20:59:42

Runway Information (Airport elevation: 14ft)

Runway 09 Length 10,151ft Width 137ft Elevation 14ft Surface Asphalt Heading 88
Runway 27 Length 10,151ft Width 137ft Elevation 14ft Surface Asphalt Heading 268

Airport Frequencies

Type APP/DEP Frequency 120.300 Mhz
Type ATIS Frequency 124.525 Mhz
Type Tower Frequency 118.150 Mhz
Type Tower Frequency 118.150 Mhz

Airport Navaids

Type VOR-DME Ident JBA Frequency 112200 Khz